• Join FlightAware (Why Join?)
  • Login
  • US Flag 
09:36AM EDT


 

Airport Tracker/Info


-or-


 

Live Flight TrackerFlight Track Log ✈ CTL17 ✈ 27-Jun-2013 ✈ KMBS - KYIP

Flight Track Log - Related Links

Times and Time Zones

All times are in EDT time to prevent confusion due to time zone crossing. See the CTL17 flight status page for this flight to view local times or setup timezone preferences in your user account.

Time Position Orientation Groundspeed Altitude Reporting Facility
EDT Latitude Longitude Course Direction KTS MPH feet Rate Location/Type
04:36PM 43.3619 -84.0057 160° South  Level Estimated
04:37PM 43.3366 -83.9838 148° Southeast  Level FlightAware Approximate
04:38PM 43.3080 -83.9718 160° South  Level Estimated
04:39PM 43.2807 -83.9553 156° South  Level FlightAware Approximate
04:40PM 43.2382 -83.9377 163° South  Level Estimated
04:41PM 43.1957 -83.9201 163° South  Level Estimated
04:42PM 43.1531 -83.9025 163° South  Level Estimated
04:43PM 43.1105 -83.8849 163° South  Level Estimated
04:44PM 43.0665 -83.8668 163° South  Level Estimated
04:45PM 43.0224 -83.8487 163° South  Level Estimated
04:46PM 42.9784 -83.8306 163° South  Level Estimated
04:47PM 42.9343 -83.8125 163° South  Level Estimated
04:48PM 42.8903 -83.7945 163° South  Level Estimated
04:49PM 42.8462 -83.7764 163° South  Level Estimated
04:50PM 42.8021 -83.7585 163° South  Level Estimated
04:51PM 42.7581 -83.7405 163° South  Level Estimated
04:52PM 42.7140 -83.7225 163° South  Level Estimated
04:53PM 42.6699 -83.7046 163° South  Level Estimated
04:54PM 42.6259 -83.6867 163° South  Level Estimated
04:55PM 42.5818 -83.6689 163° South  Level Estimated
04:56PM 42.5377 -83.6510 163° South  Level Estimated
04:57PM 42.4936 -83.6332 163° South  Level Estimated
04:57PM 42.3119 -84.3797 163° South 173 199 3,000  Level Cleveland Center
04:58PM 42.4495 -83.6154 163° South  Level Estimated
04:59PM 42.4054 -83.5977 163° South  Level Estimated
04:59PM 42.2628 -84.3514 157° South 174 200 3,200  Level Cleveland Center
05:00PM 42.3613 -83.5799 163° South  Level Estimated
05:00PM 42.2378 -84.2911 119° Southeast 191 220 3,100  Level Cleveland Center
05:01PM 42.3172 -83.5622 163° South  Level Estimated
05:01PM 42.2319 -84.2094 95° East 192 221 3,200  Level Cleveland Center
05:02PM 42.2732 -83.5445 163° South  Level Estimated
05:02PM 42.2297 -84.1475 93° East 189 217 3,200  Level Cleveland Center
05:03PM 42.2393 -83.5310 163° South  Level Estimated
05:03PM 42.2364 -84.0722 83° East 191 220 2,900  Level Cleveland Center
05:04PM 42.2364 -83.9992 90° East 183 211 2,900 -120 Level Cleveland Center
05:05PM 42.2361 -83.9347 90° East 190 219 2,700 -120 Descending Cleveland Center
05:06PM 42.2342 -83.8644 92° East 175 201 2,700  Level Cleveland Center
05:07PM 42.2378 -83.8031 85° East 176 203 2,700 -120 Level Cleveland Center
05:08PM 42.2442 -83.7303 83° East 171 197 2,500 -300 Descending Cleveland Center
05:09PM 42.2456 -83.6714 88° East 171 197 2,200 -420 Descending Cleveland Center
05:10PM 42.2494 -83.6128 85° East 149 171 1,700 -540 Descending Cleveland Center
05:11PM 42.2547 -83.5625 82° East 118 136 1,200 -540 Descending Cleveland Center